Time;durP1;ratioP1;P1;durP2;ratioP2;P2;SDS_P1;SDS_P2;PMS_P1;PMS_P2;Temp;Humidity;BMP_temperature;BMP_pressure;BME280_temperature;BME280_humidity;BME280_pressure;Samples;Min_cycle;Max_cycle;Signal;HPM_P1;HPM_P2
2023/10/14 00:02:23;;;;;;;1999.90;999.90;;;17.60;54.90;;;;;;5045704;28;20029;-72
2023/10/14 00:04:52;;;;;;;1999.90;999.90;;;17.60;55.20;;;;;;5056441;28;20398;-71
2023/10/14 00:07:20;;;;;;;1999.90;999.90;;;17.60;55.30;;;;;;5050334;28;20041;-72
2023/10/14 00:10:03;;;;;;;1999.90;999.90;;;17.50;55.80;;;;;;5049103;28;20719;-72
2023/10/14 00:12:29;;;;;;;1999.90;999.90;;;17.40;57.20;;;;;;5053408;28;20040;-73
2023/10/14 00:14:56;;;;;;;1999.90;999.90;;;17.40;56.10;;;;;;5053677;28;20086;-72
2023/10/14 00:17:22;;;;;;;1999.90;999.90;;;17.40;56.50;;;;;;5046168;28;20033;-72
2023/10/14 00:19:50;;;;;;;1999.90;999.90;;;17.30;56.70;;;;;;5050354;28;20392;-72
2023/10/14 00:22:18;;;;;;;1999.90;999.90;;;17.30;57.10;;;;;;5043636;28;20454;-72
2023/10/14 00:24:47;;;;;;;1999.90;999.90;;;17.20;58.00;;;;;;5049664;28;20041;-72
2023/10/14 00:27:13;;;;;;;1999.90;999.90;;;17.10;58.10;;;;;;5051929;28;20360;-72
2023/10/14 00:29:39;;;;;;;1999.90;999.90;;;17.30;57.80;;;;;;5054542;28;20033;-72
2023/10/14 00:32:04;;;;;;;1999.90;999.90;;;17.30;58.30;;;;;;5052170;28;20040;-73
2023/10/14 00:34:30;;;;;;;1999.90;999.90;;;17.20;58.00;;;;;;5051393;28;20041;-71
2023/10/14 00:36:56;;;;;;;1999.90;999.90;;;17.30;58.20;;;;;;5046387;28;20573;-71
2023/10/14 00:39:30;;;;;;;1999.90;999.90;;;17.30;58.20;;;;;;5055589;28;20464;-71
2023/10/14 00:41:58;;;;;;;1999.90;999.90;;;17.30;58.70;;;;;;5052706;28;20029;-72
2023/10/14 00:44:26;;;;;;;1999.90;999.90;;;17.30;58.70;;;;;;5050448;28;20551;-72
2023/10/14 00:46:53;;;;;;;1999.90;999.90;;;17.30;58.50;;;;;;5052037;28;20033;-72
2023/10/14 00:49:31;;;;;;;1999.90;999.90;;;17.20;59.00;;;;;;5055222;28;20037;-73
2023/10/14 00:52:00;;;;;;;1999.90;999.90;;;17.10;60.00;;;;;;5058586;28;20040;-72
2023/10/14 00:54:36;;;;;;;1999.90;999.90;;;17.00;60.30;;;;;;5054975;28;20597;-72
2023/10/14 00:59:51;;;;;;;1999.90;999.90;;;17.10;61.00;;;;;;5054032;28;20027;-72
2023/10/14 01:02:29;;;;;;;1999.90;999.90;;;17.10;60.60;;;;;;5058326;28;20087;-72
2023/10/14 01:04:55;;;;;;;1999.90;999.90;;;17.00;60.50;;;;;;5056806;28;20516;-72
2023/10/14 01:07:21;;;;;;;1999.90;999.90;;;17.10;60.30;;;;;;5056338;28;20033;-72
2023/10/14 01:14:58;;;;;;;1999.90;999.90;;;17.00;61.40;;;;;;5054271;28;20033;-72
2023/10/14 01:19:51;;;;;;;1999.90;999.90;;;16.90;61.70;;;;;;5055640;28;20029;-72
2023/10/14 01:22:17;;;;;;;1999.90;999.90;;;16.90;61.90;;;;;;5051428;28;20716;-72
2023/10/14 01:24:43;;;;;;;1999.90;999.90;;;16.80;62.20;;;;;;5050257;28;20037;-72
2023/10/14 01:27:10;;;;;;;1999.90;999.90;;;16.80;63.70;;;;;;5060489;28;20233;-72
2023/10/14 01:29:40;;;;;;;1999.90;999.90;;;16.80;62.80;;;;;;5054636;28;20123;-71
2023/10/14 01:32:42;;;;;;;1999.90;999.90;;;16.80;62.90;;;;;;5050381;28;20045;-73
2023/10/14 01:37:54;;;;;;;1999.90;999.90;;;16.80;62.90;;;;;;5051123;28;20053;-71
2023/10/14 01:42:57;;;;;;;1999.90;999.90;;;17.00;62.90;;;;;;5054111;28;20032;-73
2023/10/14 01:45:30;;;;;;;1999.90;999.90;;;16.90;63.20;;;;;;5051143;28;20056;-71
2023/10/14 01:48:14;;;;;;;1999.90;999.90;;;16.90;63.90;;;;;;5060484;28;20114;-72
2023/10/14 01:50:54;;;;;;;1999.90;999.90;;;16.90;63.50;;;;;;5054115;28;20132;-72
2023/10/14 01:53:23;;;;;;;1999.90;999.90;;;16.90;63.40;;;;;;5051253;28;20120;-72
2023/10/14 01:55:52;;;;;;;1999.90;999.90;;;16.90;63.20;;;;;;5050373;28;20045;-72
2023/10/14 01:58:22;;;;;;;;;;;;;;;;;;;;;
2023/10/14 02:00:53;;;;;;;1999.90;999.90;;;17.00;63.10;;;;;;5055016;28;20037;-72
2023/10/14 02:03:22;;;;;;;1999.90;999.90;;;17.10;62.50;;;;;;5055257;28;20035;-72
2023/10/14 02:05:51;;;;;;;1999.90;999.90;;;17.10;62.30;;;;;;5054294;28;20040;-72
2023/10/14 02:08:21;;;;;;;1999.90;999.90;;;17.30;61.70;;;;;;5049672;28;20048;-72
2023/10/14 02:10:50;;;;;;;1999.90;999.90;;;17.30;61.80;;;;;;5055682;28;20036;-72
2023/10/14 02:13:19;;;;;;;1999.90;999.90;;;17.40;61.30;;;;;;5055586;28;20056;-71
2023/10/14 02:15:46;;;;;;;1999.90;999.90;;;17.50;61.10;;;;;;5054704;28;20068;-72
2023/10/14 02:18:22;;;;;;;1999.90;999.90;;;17.40;61.20;;;;;;5054208;28;20098;-72
2023/10/14 02:21:04;;;;;;;1999.90;999.90;;;17.40;61.40;;;;;;5049807;28;20037;-71
2023/10/14 02:23:44;;;;;;;1999.90;999.90;;;17.50;61.30;;;;;;5057611;28;20535;-72
2023/10/14 02:26:25;;;;;;;1999.90;999.90;;;17.50;61.20;;;;;;5049224;28;20028;-71
2023/10/14 02:28:55;;;;;;;1999.90;999.90;;;17.50;61.20;;;;;;5053896;28;20048;-72
2023/10/14 02:33:55;;;;;;;1999.90;999.90;;;17.60;61.40;;;;;;5046126;28;20043;-72
2023/10/14 02:36:21;;;;;;;1999.90;999.90;;;17.60;61.10;;;;;;5046341;28;20026;-72
2023/10/14 02:38:54;;;;;;;1999.90;999.90;;;17.70;61.30;;;;;;5045476;28;20048;-72
2023/10/14 02:41:21;;;;;;;1999.90;999.90;;;17.80;60.20;;;;;;5047272;28;20091;-72
2023/10/14 02:43:51;;;;;;;1999.90;999.90;;;17.70;60.80;;;;;;5048081;28;20033;-72
2023/10/14 02:46:25;;;;;;;1999.90;999.90;;;17.80;60.20;;;;;;5045884;28;20404;-72
2023/10/14 02:48:54;;;;;;;1999.90;999.90;;;17.80;60.60;;;;;;5049424;28;20618;-72
2023/10/14 02:51:36;;;;;;;1999.90;999.90;;;17.80;60.20;;;;;;5045322;28;20168;-72
2023/10/14 02:54:13;;;;;;;1999.90;999.90;;;17.60;61.00;;;;;;5051506;28;20036;-72
2023/10/14 02:59:23;;;;;;;1999.90;999.90;;;17.60;61.10;;;;;;5041347;28;20056;-72
2023/10/14 03:02:09;;;;;;;1999.90;999.90;;;17.60;61.30;;;;;;5045752;28;20053;-72
2023/10/14 03:04:44;;;;;;;1999.90;999.90;;;17.50;61.60;;;;;;5046998;28;20052;-72
2023/10/14 03:07:09;;;;;;;1999.90;999.90;;;17.40;61.60;;;;;;5047917;28;20040;-72
2023/10/14 03:09:35;;;;;;;1999.90;999.90;;;17.40;62.00;;;;;;5043686;28;20037;-72
2023/10/14 03:12:01;;;;;;;1999.90;999.90;;;17.30;62.20;;;;;;5058038;28;20112;-72
2023/10/14 03:14:29;;;;;;;1999.90;999.90;;;17.30;62.50;;;;;;5052882;28;20033;-72
2023/10/14 03:16:54;;;;;;;1999.90;999.90;;;17.30;62.70;;;;;;5051945;28;20487;-71
2023/10/14 03:19:26;;;;;;;1999.90;999.90;;;17.10;63.20;;;;;;5032042;28;20033;-72
2023/10/14 03:22:00;;;;;;;1999.90;999.90;;;17.10;63.50;;;;;;5052970;28;20456;-72
2023/10/14 03:24:32;;;;;;;1999.90;999.90;;;17.00;63.90;;;;;;5054295;28;20435;-72
2023/10/14 03:27:04;;;;;;;1999.90;999.90;;;17.00;64.00;;;;;;5045383;28;20020;-72
2023/10/14 03:29:29;;;;;;;1999.90;999.90;;;17.00;64.30;;;;;;5048656;28;20033;-72
2023/10/14 03:31:56;;;;;;;1999.90;999.90;;;17.00;64.50;;;;;;5053175;28;20055;-72
2023/10/14 03:34:31;;;;;;;1999.90;999.90;;;16.90;64.60;;;;;;5054410;28;20033;-72
2023/10/14 03:37:00;;;;;;;1999.90;999.90;;;16.90;64.90;;;;;;5051016;28;20036;-71
2023/10/14 03:39:40;;;;;;;1999.90;999.90;;;16.80;65.40;;;;;;5047264;28;20033;-71
2023/10/14 03:42:15;;;;;;;1999.90;999.90;;;16.80;65.80;;;;;;5044412;28;20045;-72
2023/10/14 03:44:44;;;;;;;1999.90;999.90;;;17.00;65.70;;;;;;5047514;28;20496;-72
2023/10/14 03:47:19;;;;;;;1999.90;999.90;;;17.10;65.90;;;;;;5056699;28;20173;-72
2023/10/14 03:49:45;;;;;;;1999.90;999.90;;;17.00;66.30;;;;;;5050669;28;20487;-72
2023/10/14 03:52:12;;;;;;;1999.90;999.90;;;17.10;66.30;;;;;;5046920;28;20032;-72
2023/10/14 03:54:44;;;;;;;1999.90;999.90;;;17.10;66.50;;;;;;5051847;28;20488;-72
2023/10/14 03:57:16;;;;;;;1999.90;999.90;;;17.00;67.10;;;;;;5045652;28;20044;-72
2023/10/14 03:59:46;;;;;;;1999.90;999.90;;;17.00;67.70;;;;;;5049847;28;20029;-72
2023/10/14 04:02:15;;;;;;;1999.90;999.90;;;17.00;68.10;;;;;;5054110;28;20032;-72
2023/10/14 04:04:42;;;;;;;1999.90;999.90;;;17.00;68.60;;;;;;5049458;28;20063;-72
2023/10/14 04:09:44;;;;;;;1999.90;999.90;;;17.00;69.10;;;;;;5050968;28;20033;-72
2023/10/14 04:12:12;;;;;;;1999.90;999.90;;;16.90;69.90;;;;;;5038193;28;20055;-73
2023/10/14 04:14:40;;;;;;;1999.90;999.90;;;16.90;70.30;;;;;;5051820;28;20082;-73
2023/10/14 04:17:20;;;;;;;1999.90;999.90;;;16.90;70.60;;;;;;5050988;28;20406;-73
2023/10/14 04:19:47;;;;;;;1999.90;999.90;;;16.90;71.20;;;;;;5047864;28;20174;-73
2023/10/14 04:22:31;;;;;;;1999.90;999.90;;;16.90;71.30;;;;;;5056079;28;20052;-73
2023/10/14 04:30:32;;;;;;;1999.90;999.90;;;16.90;72.30;;;;;;5051881;28;20607;-73
2023/10/14 04:35:31;;;;;;;1999.90;999.90;;;16.70;73.70;;;;;;5053403;28;20094;-73
2023/10/14 04:38:01;;;;;;;1999.90;999.90;;;16.70;74.20;;;;;;5055150;28;20483;-73
2023/10/14 04:43:10;;;;;;;1999.90;999.90;;;16.70;75.20;;;;;;5052046;28;20252;-73
2023/10/14 04:45:36;;;;;;;1999.90;999.90;;;16.70;75.70;;;;;;5058195;28;20059;-73
2023/10/14 04:48:04;;;;;;;1999.90;999.90;;;16.70;76.20;;;;;;5058194;28;20507;-73
2023/10/14 04:50:31;;;;;;;1999.90;999.90;;;16.70;76.60;;;;;;5050526;28;20052;-74
2023/10/14 04:52:57;;;;;;;1999.90;999.90;;;16.70;77.20;;;;;;5051490;28;20402;-73
2023/10/14 04:55:26;;;;;;;1999.90;999.90;;;16.70;77.60;;;;;;5052814;28;20037;-72
2023/10/14 05:00:43;;;;;;;1999.90;999.90;;;16.50;79.30;;;;;;5053039;28;20039;-74
2023/10/14 05:03:22;;;;;;;1999.90;999.90;;;16.50;79.80;;;;;;5049149;28;20548;-73
2023/10/14 05:05:51;;;;;;;1999.90;999.90;;;16.50;79.80;;;;;;5050286;28;20021;-73
2023/10/14 05:08:21;;;;;;;1999.90;999.90;;;16.50;79.90;;;;;;5054466;28;20036;-73
2023/10/14 05:10:52;;;;;;;1999.90;999.90;;;16.50;79.90;;;;;;5052450;28;20037;-72
2023/10/14 05:13:19;;;;;;;1999.90;999.90;;;16.50;79.70;;;;;;5051254;28;20032;-73
2023/10/14 05:15:53;;;;;;;1999.90;999.90;;;16.60;78.90;;;;;;5052212;28;20044;-72
2023/10/14 05:18:28;;;;;;;1999.90;999.90;;;16.60;79.10;;;;;;5054559;28;20364;-73
2023/10/14 05:23:24;;;;;;;1999.90;999.90;;;16.60;79.00;;;;;;5049065;28;20034;-72
2023/10/14 05:25:56;;;;;;;1999.90;999.90;;;16.60;79.70;;;;;;5052839;28;20036;-73
2023/10/14 05:28:31;;;;;;;1999.90;999.90;;;16.40;81.10;;;;;;5051329;28;20047;-73
2023/10/14 05:31:09;;;;;;;1999.90;999.90;;;16.20;82.90;;;;;;5050820;28;20556;-74
2023/10/14 05:33:37;;;;;;;1999.90;999.90;;;16.10;83.90;;;;;;5052189;28;20167;-73
2023/10/14 05:36:05;;;;;;;1999.90;999.90;;;15.90;85.80;;;;;;5047398;28;20032;-74
2023/10/14 05:38:30;;;;;;;1999.90;999.90;;;15.80;87.50;;;;;;5044626;28;20519;-73
2023/10/14 05:40:58;;;;;;;1999.90;999.90;;;15.70;88.20;;;;;;5053328;28;20133;-73
2023/10/14 05:43:25;;;;;;;1999.90;999.90;;;15.70;87.90;;;;;;5054116;28;20028;-73
2023/10/14 05:45:54;;;;;;;1999.90;999.90;;;15.70;88.00;;;;;;5052415;28;20094;-73
2023/10/14 05:48:27;;;;;;;1999.90;999.90;;;15.70;87.70;;;;;;5053311;28;20493;-73
2023/10/14 05:50:56;;;;;;;1999.90;999.90;;;15.80;86.60;;;;;;5050912;28;20438;-73
2023/10/14 05:53:25;;;;;;;1999.90;999.90;;;15.80;86.60;;;;;;5053358;28;20082;-73
2023/10/14 05:56:12;;;;;;;1999.90;999.90;;;15.80;86.80;;;;;;5055913;28;20044;-72
2023/10/14 05:58:38;;;;;;;1999.90;999.90;;;15.80;88.20;;;;;;5050877;28;20059;-74
2023/10/14 06:01:12;;;;;;;1999.90;999.90;;;15.70;88.30;;;;;;5053605;28;20028;-73
2023/10/14 06:03:39;;;;;;;1999.90;999.90;;;15.70;88.10;;;;;;5053002;28;20033;-73
2023/10/14 06:06:14;;;;;;;1999.90;999.90;;;15.70;87.90;;;;;;5052633;28;20029;-73
2023/10/14 06:08:41;;;;;;;1999.90;999.90;;;15.70;87.70;;;;;;5057199;28;20041;-73
2023/10/14 06:11:07;;;;;;;1999.90;999.90;;;15.70;88.20;;;;;;5055274;28;20078;-73
2023/10/14 06:13:34;;;;;;;1999.90;999.90;;;15.70;88.20;;;;;;5053146;28;20064;-73
2023/10/14 06:16:01;;;;;;;1999.90;999.90;;;15.60;88.20;;;;;;5048872;28;20107;-75
2023/10/14 06:18:29;;;;;;;1999.90;999.90;;;15.60;88.70;;;;;;5048864;28;20102;-75
2023/10/14 06:20:57;;;;;;;1999.90;999.90;;;15.70;88.60;;;;;;5037365;28;20481;-75
2023/10/14 06:23:26;;;;;;;1999.90;999.90;;;15.70;89.00;;;;;;5056478;28;20116;-75
2023/10/14 06:25:55;;;;;;;1999.90;999.90;;;15.70;88.90;;;;;;5052679;28;20395;-74
2023/10/14 06:28:21;;;;;;;1999.90;999.90;;;15.70;88.90;;;;;;5047888;28;20036;-75
2023/10/14 06:30:48;;;;;;;1999.90;999.90;;;15.70;88.80;;;;;;5052170;28;20108;-74
2023/10/14 06:33:15;;;;;;;1999.90;999.90;;;15.70;88.60;;;;;;5053853;28;20037;-78
2023/10/14 06:35:43;;;;;;;1999.90;999.90;;;15.80;88.50;;;;;;5040924;28;20039;-74
2023/10/14 06:38:11;;;;;;;1999.90;999.90;;;15.80;88.30;;;;;;5045847;28;20380;-74
2023/10/14 06:40:37;;;;;;;1999.90;999.90;;;15.90;87.70;;;;;;5043272;28;20036;-73
2023/10/14 06:43:08;;;;;;;1999.90;999.90;;;15.80;88.40;;;;;;5046034;28;20056;-74
2023/10/14 06:45:35;;;;;;;1999.90;999.90;;;15.90;87.60;;;;;;5047765;28;20067;-74
2023/10/14 06:48:10;;;;;;;1999.90;999.90;;;16.00;87.30;;;;;;5046772;28;20083;-77
2023/10/14 06:50:42;;;;;;;1999.90;999.90;;;15.90;87.30;;;;;;5044503;28;20029;-75
2023/10/14 06:53:09;;;;;;;1999.90;999.90;;;16.00;86.70;;;;;;5061524;28;20491;-76
2023/10/14 06:55:39;;;;;;;1999.90;999.90;;;16.00;86.80;;;;;;5048767;28;20048;-76
2023/10/14 06:58:09;;;;;;;1999.90;999.90;;;16.00;86.70;;;;;;5052342;28;20040;-75
2023/10/14 07:00:38;;;;;;;1999.90;999.90;;;16.00;86.60;;;;;;5054113;28;20178;-74
2023/10/14 07:03:14;;;;;;;1999.90;999.90;;;16.00;86.60;;;;;;5052077;28;20103;-74
2023/10/14 07:05:50;;;;;;;1999.90;999.90;;;16.00;86.90;;;;;;5047113;28;20029;-74
2023/10/14 07:08:21;;;;;;;1999.90;999.90;;;16.00;86.80;;;;;;5048738;28;20043;-74
2023/10/14 07:10:50;;;;;;;1999.90;999.90;;;16.00;86.50;;;;;;5051210;28;20086;-74
2023/10/14 07:13:20;;;;;;;1999.90;999.90;;;16.10;86.10;;;;;;5053730;28;20039;-74
2023/10/14 07:15:47;;;;;;;1999.90;999.90;;;16.10;86.20;;;;;;5048005;28;20086;-74
2023/10/14 07:18:22;;;;;;;1999.90;999.90;;;16.10;86.00;;;;;;5053018;28;20040;-75
2023/10/14 07:21:08;;;;;;;1999.90;999.90;;;16.20;86.00;;;;;;5050413;28;20379;-74
2023/10/14 07:23:34;;;;;;;1999.90;999.90;;;16.20;85.40;;;;;;5042457;28;20063;-78
2023/10/14 07:26:11;;;;;;;1999.90;999.90;;;16.30;85.30;;;;;;5049123;28;20057;-77
2023/10/14 07:28:42;;;;;;;1999.90;999.90;;;16.30;84.70;;;;;;5030282;28;20081;-79
2023/10/14 07:31:10;;;;;;;1999.90;999.90;;;16.40;84.90;;;;;;5045951;28;20045;-82
2023/10/14 07:33:37;;;;;;;1999.90;999.90;;;16.40;84.10;;;;;;5055066;28;20028;-79
2023/10/14 07:36:06;;;;;;;1999.90;999.90;;;16.50;83.90;;;;;;5045613;28;20021;-84
2023/10/14 07:38:35;;;;;;;1999.90;999.90;;;16.60;83.30;;;;;;5048475;28;20075;-82
2023/10/14 07:41:03;;;;;;;1999.90;999.90;;;16.70;83.30;;;;;;5046903;28;20120;-77
2023/10/14 07:43:28;;;;;;;1999.90;999.90;;;16.80;82.10;;;;;;5050289;28;20025;-79
2023/10/14 07:45:54;;;;;;;1999.90;999.90;;;16.90;82.20;;;;;;5054078;28;20037;-80
2023/10/14 07:48:20;;;;;;;1999.90;999.90;;;17.10;81.10;;;;;;5031124;28;20065;-79
2023/10/14 07:50:47;;;;;;;1999.90;999.90;;;17.10;81.10;;;;;;5047801;28;20374;-80
2023/10/14 07:53:14;;;;;;;1999.90;999.90;;;17.20;80.80;;;;;;5047508;28;20024;-80
2023/10/14 07:55:49;;;;;;;1999.90;999.90;;;17.10;80.40;;;;;;5049693;28;20037;-80
2023/10/14 07:58:16;;;;;;;1999.90;999.90;;;17.00;80.60;;;;;;5042152;28;20391;-79
2023/10/14 08:00:50;;;;;;;1999.90;999.90;;;17.00;80.30;;;;;;5042192;28;20051;-79
2023/10/14 08:03:18;;;;;;;1999.90;999.90;;;17.00;79.80;;;;;;5057453;28;20022;-81
2023/10/14 08:05:46;;;;;;;1999.90;999.90;;;17.10;80.00;;;;;;5058768;28;20511;-82
2023/10/14 08:08:13;;;;;;;1999.90;999.90;;;17.20;79.50;;;;;;5049913;28;20055;-76
2023/10/14 08:10:43;;;;;;;1999.90;999.90;;;17.20;79.10;;;;;;5055665;28;20024;-76
2023/10/14 08:13:09;;;;;;;1999.90;999.90;;;17.20;80.20;;;;;;5053091;28;20028;-76
2023/10/14 08:15:36;;;;;;;1999.90;999.90;;;17.20;79.20;;;;;;5049692;28;20035;-77
2023/10/14 08:18:06;;;;;;;1999.90;999.90;;;17.00;79.70;;;;;;5050222;28;20617;-76
2023/10/14 08:20:35;;;;;;;1999.90;999.90;;;16.90;79.70;;;;;;5046749;28;20074;-76
2023/10/14 08:23:09;;;;;;;1999.90;999.90;;;16.80;80.20;;;;;;5048948;28;20111;-76
2023/10/14 08:25:35;;;;;;;1999.90;999.90;;;16.70;80.30;;;;;;5052651;28;20499;-76
2023/10/14 08:28:05;;;;;;;1999.90;999.90;;;16.80;80.50;;;;;;5045788;28;20028;-81
2023/10/14 08:30:36;;;;;;;1999.90;999.90;;;16.80;80.10;;;;;;5045124;28;20063;-82
2023/10/14 08:33:02;;;;;;;1999.90;999.90;;;16.80;79.90;;;;;;5046546;28;20041;-79
2023/10/14 08:35:29;;;;;;;1999.90;999.90;;;16.70;79.90;;;;;;5043805;28;20060;-79
2023/10/14 08:37:57;;;;;;;1999.90;999.90;;;16.90;79.90;;;;;;5050780;28;20033;-81
2023/10/14 08:40:29;;;;;;;1999.90;999.90;;;16.90;79.60;;;;;;5042750;28;20491;-81
2023/10/14 08:43:05;;;;;;;1999.90;999.90;;;17.10;79.70;;;;;;5049316;28;20467;-80
2023/10/14 08:45:36;;;;;;;1999.90;999.90;;;17.50;78.40;;;;;;5054716;28;20032;-83
2023/10/14 08:48:02;;;;;;;1999.90;999.90;;;17.80;77.50;;;;;;5050527;28;20033;-82
2023/10/14 08:50:32;;;;;;;1999.90;999.90;;;17.60;76.90;;;;;;5075319;28;20094;-80
2023/10/14 08:53:01;;;;;;;1999.90;999.90;;;17.60;77.30;;;;;;5047705;28;20640;-80
2023/10/14 08:55:28;;;;;;;1999.90;999.90;;;17.30;77.60;;;;;;5056706;28;20192;-80
2023/10/14 08:58:01;;;;;;;1999.90;999.90;;;17.30;77.50;;;;;;5053097;28;20034;-79
2023/10/14 09:00:29;;;;;;;1999.90;999.90;;;17.30;78.00;;;;;;5039801;28;20032;-82
2023/10/14 09:02:56;;;;;;;1999.90;999.90;;;17.20;77.40;;;;;;5046205;28;20399;-80
2023/10/14 09:05:24;;;;;;;1999.90;999.90;;;17.80;77.70;;;;;;5043848;28;20636;-80
2023/10/14 09:07:52;;;;;;;1999.90;999.90;;;18.00;75.30;;;;;;5043539;28;20064;-81
2023/10/14 09:10:20;;;;;;;1999.90;999.90;;;18.60;74.80;;;;;;5050030;28;20040;-79
2023/10/14 09:13:00;;;;;;;1999.90;999.90;;;18.80;72.40;;;;;;5054573;28;20116;-84
2023/10/14 09:15:27;;;;;;;;;;;18.50;71.60;;;;;;5050706;28;20036;-87
2023/10/14 09:17:55;;;;;;;1999.90;999.90;;;18.70;72.40;;;;;;5055165;28;20004;-79
2023/10/14 09:20:31;;;;;;;1999.90;999.90;;;18.80;71.10;;;;;;5052933;28;20048;-81
2023/10/14 09:25:59;;;;;;;1999.90;999.90;;;19.10;70.50;;;;;;5051719;28;20082;-86
2023/10/14 09:28:33;;;;;;;1999.90;999.90;;;18.90;70.80;;;;;;5047774;28;20033;-85
2023/10/14 09:30:59;;;;;;;1999.90;999.90;;;18.80;72.00;;;;;;5051242;28;20484;-84
2023/10/14 09:33:45;;;;;;;1999.90;999.90;;;18.80;73.30;;;;;;5045261;28;20479;-84
2023/10/14 09:36:22;;;;;;;1999.90;999.90;;;18.30;77.20;;;;;;5048872;28;20047;-83
2023/10/14 09:38:50;;;;;;;1999.90;999.90;;;17.90;77.10;;;;;;5044721;28;20095;-79
2023/10/14 09:41:17;;;;;;;1999.90;999.90;;;17.70;81.20;;;;;;5050140;28;20538;-81
2023/10/14 09:43:45;;;;;;;1999.90;999.90;;;17.60;82.10;;;;;;5049851;28;20023;-80
2023/10/14 09:46:12;;;;;;;1999.90;999.90;;;17.40;81.40;;;;;;5051256;28;20052;-79
2023/10/14 09:48:39;;;;;;;1999.90;999.90;;;17.30;81.60;;;;;;5047657;28;20037;-78
2023/10/14 09:51:07;;;;;;;1999.90;999.90;;;17.30;83.60;;;;;;5045170;28;20029;-80
2023/10/14 09:53:37;;;;;;;1999.90;999.90;;;16.90;84.20;;;;;;5046818;28;20462;-82
2023/10/14 09:56:10;;;;;;;1999.90;999.90;;;16.60;85.80;;;;;;5045721;28;20030;-80
2023/10/14 09:58:41;;;;;;;1999.90;999.90;;;16.30;90.20;;;;;;5042211;28;20126;-85
2023/10/14 10:01:19;;;;;;;1999.90;999.90;;;15.70;91.10;;;;;;5083472;28;20075;-83
2023/10/14 10:04:02;;;;;;;1999.90;999.90;;;15.40;92.50;;;;;;5053020;28;20376;-90
2023/10/14 10:06:49;;;;;;;1999.90;999.90;;;15.40;93.20;;;;;;5050866;28;20047;-81
2023/10/14 10:09:29;;;;;;;1999.90;999.90;;;15.20;94.10;;;;;;5055321;28;20052;-80
2023/10/14 10:11:57;;;;;;;1505.07;751.85;;;15.00;95.00;;;;;;5054900;28;20059;-79
2023/10/14 10:14:26;;;;;;;1999.90;999.90;;;14.80;95.70;;;;;;5054307;28;20036;-80
2023/10/14 10:16:54;;;;;;;1999.90;999.90;;;14.80;97.10;;;;;;5052444;28;20041;-83
2023/10/14 10:19:21;;;;;;;1999.90;999.90;;;15.80;99.30;;;;;;5056595;28;20495;-79
2023/10/14 10:22:17;;;;;;;1999.90;999.90;;;15.40;99.90;;;;;;5050167;28;20041;-76
2023/10/14 10:24:45;;;;;;;1999.90;999.90;;;15.30;99.90;;;;;;5052580;28;20035;-79
2023/10/14 10:27:11;;;;;;;1999.90;999.90;;;15.70;99.90;;;;;;5051271;28;20041;-77
2023/10/14 10:29:55;;;;;;;1999.90;999.90;;;15.60;99.90;;;;;;5056123;28;20117;-77
2023/10/14 10:32:30;;;;;;;1999.90;999.90;;;15.90;99.90;;;;;;5052942;28;20067;-77
2023/10/14 10:35:13;;;;;;;1999.90;999.90;;;16.30;99.90;;;;;;5053832;28;20025;-78
2023/10/14 10:37:46;;;;;;;1999.90;999.90;;;16.50;99.90;;;;;;5045534;28;20037;-78
2023/10/14 10:40:14;;;;;;;1999.90;999.90;;;17.10;99.90;;;;;;5050803;28;20023;-76
2023/10/14 10:42:42;;;;;;;1999.90;999.90;;;17.00;99.90;;;;;;5053677;28;20017;-77
2023/10/14 10:45:14;;;;;;;1999.90;999.90;;;16.50;99.90;;;;;;5053182;28;20024;-76
2023/10/14 10:47:56;;;;;;;1999.90;999.90;;;16.70;99.90;;;;;;5048431;28;20063;-77
2023/10/14 10:50:26;;;;;;;1999.90;999.90;;;16.70;99.90;;;;;;5050050;28;20396;-76
2023/10/14 10:53:12;;;;;;;1999.90;999.90;;;16.70;99.90;;;;;;5050408;28;20033;-76
2023/10/14 10:55:40;;;;;;;1999.90;999.90;;;17.00;99.90;;;;;;5049656;28;20085;-77
2023/10/14 10:58:11;;;;;;;1999.90;999.90;;;16.90;99.90;;;;;;5054581;28;20053;-77
2023/10/14 11:00:38;;;;;;;1999.90;999.90;;;16.70;99.90;;;;;;5050740;28;20033;-77
2023/10/14 11:03:05;;;;;;;1999.90;999.90;;;16.70;99.90;;;;;;5052404;28;20118;-75
2023/10/14 11:05:33;;;;;;;1999.90;999.90;;;16.70;99.90;;;;;;5050428;28;20403;-75
2023/10/14 11:08:00;;;;;;;1999.90;999.90;;;16.30;99.90;;;;;;5055607;28;20036;-75
2023/10/14 11:10:28;;;;;;;1999.90;999.90;;;15.80;99.90;;;;;;5053529;28;20108;-74
2023/10/14 11:12:58;;;;;;;1999.90;999.90;;;15.90;99.90;;;;;;5052981;28;20407;-77
2023/10/14 11:15:25;;;;;;;1999.90;999.90;;;15.60;99.90;;;;;;5049843;28;20089;-74
2023/10/14 11:17:58;;;;;;;1999.90;999.90;;;15.50;99.90;;;;;;5054249;28;20040;-76
2023/10/14 11:20:45;;;;;;;1999.90;999.90;;;15.60;99.90;;;;;;5053169;28;20111;-78
2023/10/14 11:23:12;;;;;;;1999.90;999.90;;;15.20;99.90;;;;;;5054224;28;20082;-76
2023/10/14 11:25:42;;;;;;;1999.90;999.90;;;15.50;99.90;;;;;;5048018;28;20079;-75
2023/10/14 11:28:14;;;;;;;1999.90;999.90;;;15.80;99.90;;;;;;5050859;28;20022;-76
2023/10/14 11:30:47;;;;;;;1999.90;999.90;;;16.20;99.90;;;;;;5049534;28;20093;-77
2023/10/14 11:33:14;;;;;;;1999.90;999.90;;;16.70;99.90;;;;;;5053255;28;20032;-77
2023/10/14 11:35:41;;;;;;;1999.90;999.90;;;16.70;99.90;;;;;;5051896;28;20086;-78
2023/10/14 11:38:08;;;;;;;1999.90;999.90;;;16.80;99.90;;;;;;5045899;28;20031;-78
2023/10/14 11:40:38;;;;;;;1999.90;999.90;;;16.50;99.90;;;;;;5053951;28;20026;-77
2023/10/14 11:43:11;;;;;;;1999.90;999.90;;;16.90;99.90;;;;;;5048551;28;20140;-77
2023/10/14 11:45:45;;;;;;;1999.90;999.90;;;16.90;99.90;;;;;;5042250;28;20043;-78
2023/10/14 11:48:27;;;;;;;1999.90;999.90;;;16.90;99.90;;;;;;5050617;28;20037;-78
2023/10/14 11:50:59;;;;;;;1999.90;999.90;;;16.70;99.90;;;;;;5048713;28;20032;-78
2023/10/14 11:53:32;;;;;;;1999.90;999.90;;;16.80;99.90;;;;;;5048163;28;20499;-78
2023/10/14 11:56:03;;;;;;;1999.90;999.90;;;16.90;99.90;;;;;;5044058;28;20064;-77
2023/10/14 11:58:31;;;;;;;1999.90;999.90;;;16.70;99.90;;;;;;5045768;28;20033;-77
2023/10/14 12:00:57;;;;;;;1999.90;999.90;;;16.80;99.90;;;;;;5046544;28;20034;-78
2023/10/14 12:03:25;;;;;;;1999.90;999.90;;;16.80;99.90;;;;;;5058438;28;20104;-75
2023/10/14 12:05:58;;;;;;;1999.90;999.90;;;16.90;99.90;;;;;;5054797;28;21278;-76
2023/10/14 12:08:32;;;;;;;1999.90;999.90;;;16.90;99.90;;;;;;5052832;28;20037;-77
2023/10/14 12:10:59;;;;;;;1999.90;999.90;;;17.10;99.90;;;;;;5048973;28;20503;-76
2023/10/14 12:13:26;;;;;;;1999.90;999.90;;;17.00;99.90;;;;;;5049163;28;20107;-77
2023/10/14 12:15:52;;;;;;;1999.90;999.90;;;17.10;99.90;;;;;;5056715;28;20028;-77
2023/10/14 12:18:18;;;;;;;1999.90;999.90;;;16.80;99.90;;;;;;5052416;28;20024;-77
2023/10/14 12:20:47;;;;;;;1999.90;999.90;;;16.90;99.90;;;;;;5048802;28;20040;-77
2023/10/14 12:23:20;;;;;;;1999.90;999.90;;;17.20;99.90;;;;;;5048785;28;20112;-76
2023/10/14 12:25:48;;;;;;;1999.90;999.90;;;17.40;99.90;;;;;;5045716;28;20175;-76
2023/10/14 12:28:25;;;;;;;1999.90;999.90;;;17.40;99.90;;;;;;5053724;28;20029;-76
2023/10/14 12:30:52;;;;;;;1999.90;999.90;;;17.80;99.90;;;;;;5049461;28;20395;-77
2023/10/14 12:33:20;;;;;;;1999.90;999.90;;;18.10;99.90;;;;;;5046196;28;20124;-76
2023/10/14 12:35:51;;;;;;;1999.90;999.90;;;17.90;99.90;;;;;;5049852;28;20570;-76
2023/10/14 12:38:19;;;;;;;1999.90;999.90;;;18.00;99.90;;;;;;5053867;28;20089;-75
2023/10/14 12:40:49;;;;;;;1999.90;999.90;;;17.90;99.90;;;;;;5051716;28;20044;-75
2023/10/14 12:43:27;;;;;;;1999.90;999.90;;;17.90;99.90;;;;;;5060346;28;20032;-75
2023/10/14 12:46:19;;;;;;;1999.90;999.90;;;18.50;99.90;;;;;;5050978;28;20021;-75
2023/10/14 12:48:50;;;;;;;1999.90;999.90;;;18.80;99.90;;;;;;5053760;28;20056;-76
2023/10/14 12:51:20;;;;;;;1999.90;999.90;;;18.00;99.90;;;;;;5057501;28;20071;-76
2023/10/14 12:53:46;;;;;;;1999.90;999.90;;;17.90;99.90;;;;;;5050312;28;20498;-75
2023/10/14 12:56:22;;;;;;;1999.90;999.90;;;17.70;99.90;;;;;;5056359;28;20090;-75
2023/10/14 12:58:48;;;;;;;1999.90;999.90;;;17.40;99.90;;;;;;5048992;28;20576;-75
2023/10/14 13:01:17;;;;;;;1999.90;999.90;;;17.10;99.90;;;;;;5050704;28;20040;-76